Time;durP1;ratioP1;P1;durP2;ratioP2;P2;SDS_P1;SDS_P2;PMS_P1;PMS_P2;Temp;Humidity;BMP_temperature;BMP_pressure;BME280_temperature;BME280_humidity;BME280_pressure;Samples;Min_cycle;Max_cycle;Signal;HPM_P1;HPM_P2
2024/01/09 00:00:26;;;;;;;7.33;6.13;;;;;;;;;;6182698;23;20458;-84
2024/01/09 00:02:55;;;;;;;6.50;5.83;;;;;;;;;;6184638;23;20453;-84
2024/01/09 00:05:24;;;;;;;7.00;6.27;;;;;;;;;;6182569;23;20171;-84
2024/01/09 00:07:53;;;;;;;8.93;5.67;;;;;;;;;;6183772;23;20470;-84
2024/01/09 00:10:21;;;;;;;6.73;6.13;;;;;;;;;;6183725;23;20398;-84
2024/01/09 00:12:51;;;;;;;6.50;5.33;;;;;;;;;;6184272;23;20394;-84
2024/01/09 00:15:20;;;;;;;4.20;3.90;;;;;;;;;;6184272;23;20430;-84
2024/01/09 00:17:48;;;;;;;5.33;4.63;;;;;;;;;;6181998;23;20488;-84
2024/01/09 00:20:17;;;;;;;5.17;4.17;;;;;;;;;;6181906;23;20452;-84
2024/01/09 00:22:46;;;;;;;6.40;5.73;;;;;;;;;;6182649;23;20406;-84
2024/01/09 00:25:16;;;;;;;7.77;6.10;;;;;;;;;;6183200;23;20413;-84
2024/01/09 00:27:44;;;;;;;6.60;5.43;;;;;;;;;;6182156;23;20417;-84
2024/01/09 00:30:14;;;;;;;4.77;4.07;;;;;;;;;;6183280;23;20399;-84
2024/01/09 00:32:47;;;;;;;4.77;4.33;;;;;;;;;;6182967;23;20229;-84
2024/01/09 00:35:16;;;;;;;4.23;3.83;;;;;;;;;;6182982;23;20274;-84
2024/01/09 00:37:44;;;;;;;5.60;4.93;;;;;;;;;;6182111;23;20406;-84
2024/01/09 00:40:13;;;;;;;7.07;4.90;;;;;;;;;;6182177;23;20472;-84
2024/01/09 00:42:41;;;;;;;5.83;5.33;;;;;;;;;;6183996;23;20409;-84
2024/01/09 00:45:10;;;;;;;4.50;3.87;;;;;;;;;;6182625;23;20402;-84
2024/01/09 00:47:40;;;;;;;8.27;4.17;;;;;;;;;;6183354;23;20414;-84
2024/01/09 00:50:09;;;;;;;4.97;3.83;;;;;;;;;;6182980;23;20418;-84
2024/01/09 00:52:38;;;;;;;5.33;4.73;;;;;;;;;;6182132;23;20449;-84
2024/01/09 00:55:07;;;;;;;7.93;5.43;;;;;;;;;;6182621;23;20445;-84
2024/01/09 00:57:36;;;;;;;7.53;6.13;;;;;;;;;;6182123;23;20174;-84
2024/01/09 01:00:05;;;;;;;4.87;4.43;;;;;;;;;;6182043;23;20421;-84
2024/01/09 01:02:36;;;;;;;6.10;5.50;;;;;;;;;;6183596;23;20490;-84
2024/01/09 01:05:07;;;;;;;6.40;5.50;;;;;;;;;;6184070;23;20497;-84
2024/01/09 01:07:36;;;;;;;5.90;4.57;;;;;;;;;;6182130;23;20495;-84
2024/01/09 01:10:04;;;;;;;7.27;5.07;;;;;;;;;;6182044;23;20493;-84
2024/01/09 01:12:33;;;;;;;9.40;6.63;;;;;;;;;;6183741;23;20174;-84
2024/01/09 01:15:01;;;;;;;6.97;5.00;;;;;;;;;;6182310;23;20441;-84
2024/01/09 01:17:29;;;;;;;6.87;4.17;;;;;;;;;;6182218;23;20402;-84
2024/01/09 01:19:58;;;;;;;7.37;6.53;;;;;;;;;;6183509;23;20399;-84
2024/01/09 01:22:28;;;;;;;5.53;4.83;;;;;;;;;;6182975;23;20395;-84
2024/01/09 01:24:57;;;;;;;4.20;2.67;;;;;;;;;;6183819;23;20413;-84
2024/01/09 01:27:25;;;;;;;3.90;3.27;;;;;;;;;;6183245;23;20402;-84
2024/01/09 01:29:54;;;;;;;5.40;4.53;;;;;;;;;;6181476;23;20457;-84
2024/01/09 01:32:22;;;;;;;6.70;5.03;;;;;;;;;;6181566;23;20402;-84
2024/01/09 01:34:51;;;;;;;4.13;3.67;;;;;;;;;;6184047;23;20402;-84
2024/01/09 01:37:20;;;;;;;4.50;4.17;;;;;;;;;;6182968;23;20434;-84
2024/01/09 01:39:49;;;;;;;5.07;4.07;;;;;;;;;;6183280;23;20394;-84
2024/01/09 01:42:18;;;;;;;5.33;4.00;;;;;;;;;;6181335;23;20414;-84
2024/01/09 01:44:46;;;;;;;4.57;4.17;;;;;;;;;;6181766;23;20408;-84
2024/01/09 01:47:16;;;;;;;3.07;2.87;;;;;;;;;;6183299;23;20402;-84
2024/01/09 01:49:44;;;;;;;4.63;4.23;;;;;;;;;;6181733;23;20286;-84
2024/01/09 01:52:16;;;;;;;4.03;3.13;;;;;;;;;;6181400;23;20553;-84
2024/01/09 01:54:44;;;;;;;5.97;5.23;;;;;;;;;;6181719;23;20241;-84
2024/01/09 01:57:14;;;;;;;5.60;5.20;;;;;;;;;;6181620;23;20446;-84
2024/01/09 01:59:50;;;;;;;5.47;3.57;;;;;;;;;;6181596;23;20418;-84
2024/01/09 02:02:19;;;;;;;3.50;3.20;;;;;;;;;;6181467;23;20437;-84
2024/01/09 02:04:48;;;;;;;4.47;3.97;;;;;;;;;;6181145;23;20171;-84
2024/01/09 02:07:17;;;;;;;5.47;4.83;;;;;;;;;;6183208;23;20410;-84
2024/01/09 02:09:45;;;;;;;5.87;5.27;;;;;;;;;;6181804;23;20410;-84
2024/01/09 02:12:15;;;;;;;4.53;3.77;;;;;;;;;;6182521;23;20497;-84
2024/01/09 02:14:44;;;;;;;4.73;4.30;;;;;;;;;;6182754;23;20466;-84
2024/01/09 02:17:12;;;;;;;6.43;5.83;;;;;;;;;;6181586;23;20446;-84
2024/01/09 02:19:41;;;;;;;4.50;4.03;;;;;;;;;;6183377;23;20406;-84
2024/01/09 02:22:09;;;;;;;5.10;4.60;;;;;;;;;;6181284;23;20171;-84
2024/01/09 02:24:38;;;;;;;3.90;3.53;;;;;;;;;;6181266;23;20412;-84
2024/01/09 02:27:10;;;;;;;5.07;4.57;;;;;;;;;;6182868;23;20448;-84
2024/01/09 02:29:40;;;;;;;4.43;4.03;;;;;;;;;;6181718;23;20457;-84
2024/01/09 02:32:10;;;;;;;6.03;4.07;;;;;;;;;;6181074;23;20410;-84
2024/01/09 02:34:39;;;;;;;3.40;3.10;;;;;;;;;;6182644;23;20408;-84
2024/01/09 02:37:07;;;;;;;4.40;3.83;;;;;;;;;;6181159;23;20225;-84
2024/01/09 02:39:36;;;;;;;3.97;3.63;;;;;;;;;;6182041;23;20457;-84
2024/01/09 02:42:05;;;;;;;5.27;3.93;;;;;;;;;;6181340;23;20221;-84
2024/01/09 02:44:33;;;;;;;5.07;3.63;;;;;;;;;;6180849;23;20410;-84
2024/01/09 02:47:02;;;;;;;4.80;4.40;;;;;;;;;;6181636;23;20518;-84
2024/01/09 02:49:31;;;;;;;3.83;3.50;;;;;;;;;;6181547;23;20429;-84
2024/01/09 02:52:01;;;;;;;3.10;2.90;;;;;;;;;;6182455;23;20448;-84
2024/01/09 02:54:29;;;;;;;5.23;4.17;;;;;;;;;;6180796;23;20437;-84
2024/01/09 02:56:58;;;;;;;4.53;3.97;;;;;;;;;;6182896;23;20582;-84
2024/01/09 02:59:26;;;;;;;3.77;3.47;;;;;;;;;;6182732;23;20182;-84
2024/01/09 03:01:55;;;;;;;5.30;4.27;;;;;;;;;;6181382;23;20414;-84
2024/01/09 03:04:23;;;;;;;4.13;3.73;;;;;;;;;;6182117;23;20395;-84
2024/01/09 03:06:53;;;;;;;3.13;2.83;;;;;;;;;;6182308;23;20413;-84
2024/01/09 03:09:22;;;;;;;3.57;3.27;;;;;;;;;;6182939;23;20404;-84
2024/01/09 03:11:51;;;;;;;4.50;4.00;;;;;;;;;;6181800;23;20406;-84
2024/01/09 03:14:19;;;;;;;6.87;3.67;;;;;;;;;;6180512;23;20434;-84
2024/01/09 03:16:48;;;;;;;3.57;3.30;;;;;;;;;;6181411;23;20457;-84
2024/01/09 03:19:17;;;;;;;4.37;3.93;;;;;;;;;;6183341;23;20428;-84
2024/01/09 03:21:45;;;;;;;5.33;4.27;;;;;;;;;;6184665;23;20405;-84
2024/01/09 03:24:15;;;;;;;4.50;3.83;;;;;;;;;;6184796;23;20417;-84
2024/01/09 03:26:44;;;;;;;3.23;2.90;;;;;;;;;;6182779;23;20433;-84
2024/01/09 03:29:12;;;;;;;4.50;4.10;;;;;;;;;;6183099;23;20500;-84
2024/01/09 03:31:41;;;;;;;3.80;3.47;;;;;;;;;;6184552;23;20449;-84
2024/01/09 03:34:09;;;;;;;3.00;2.80;;;;;;;;;;6184408;23;20408;-84
2024/01/09 03:36:39;;;;;;;3.20;2.90;;;;;;;;;;6182455;23;20488;-84
2024/01/09 03:39:09;;;;;;;5.07;4.03;;;;;;;;;;6183406;23;20476;-84
2024/01/09 03:41:39;;;;;;;5.50;4.40;;;;;;;;;;6183228;23;20422;-84
2024/01/09 03:44:07;;;;;;;3.83;3.40;;;;;;;;;;6182505;23;20408;-84
2024/01/09 03:46:36;;;;;;;4.13;3.83;;;;;;;;;;6183930;23;20477;-84
2024/01/09 03:49:04;;;;;;;3.00;2.70;;;;;;;;;;6184315;23;20470;-84
2024/01/09 03:51:33;;;;;;;8.67;3.97;;;;;;;;;;6184361;23;20426;-84
2024/01/09 03:54:20;;;;;;;5.30;4.07;;;;;;;;;;5108624;27;20293;-83
2024/01/09 03:56:49;;;;;;;4.40;3.37;;;;;;;;;;5108129;28;20437;-84
2024/01/09 03:59:18;;;;;;;4.43;4.03;;;;;;;;;;5107914;28;20430;-84
2024/01/09 04:01:46;;;;;;;5.57;3.30;;;;;;;;;;5107713;28;20437;-84
2024/01/09 04:04:15;;;;;;;4.20;3.60;;;;;;;;;;5109198;28;20439;-84
2024/01/09 04:06:44;;;;;;;1.80;1.70;;;;;;;;;;5108312;28;20483;-84
2024/01/09 04:09:12;;;;;;;6.00;4.23;;;;;;;;;;5107474;28;20511;-84
2024/01/09 04:11:46;;;;;;;4.77;3.57;;;;;;;;;;5109101;28;20434;-84
2024/01/09 04:14:15;;;;;;;5.10;4.10;;;;;;;;;;5107351;28;20576;-84
2024/01/09 04:16:47;;;;;;;3.97;3.57;;;;;;;;;;5106742;28;20469;-84
2024/01/09 04:19:16;;;;;;;3.80;3.50;;;;;;;;;;5107256;28;20445;-84
2024/01/09 04:21:44;;;;;;;3.37;2.73;;;;;;;;;;5107467;28;20438;-83
2024/01/09 04:24:13;;;;;;;2.83;2.63;;;;;;;;;;5106798;28;20454;-83
2024/01/09 04:26:41;;;;;;;3.20;2.90;;;;;;;;;;5106649;28;20452;-83
2024/01/09 04:29:11;;;;;;;3.37;3.07;;;;;;;;;;5141715;27;20460;-84
2024/01/09 04:31:40;;;;;;;4.93;3.50;;;;;;;;;;5107221;28;20438;-84
2024/01/09 04:34:08;;;;;;;2.73;2.53;;;;;;;;;;5108188;28;20567;-84
2024/01/09 04:36:37;;;;;;;3.13;2.83;;;;;;;;;;5106553;28;20465;-84
2024/01/09 04:39:05;;;;;;;3.77;2.77;;;;;;;;;;5106517;28;20454;-84
2024/01/09 04:41:34;;;;;;;4.50;3.67;;;;;;;;;;5106871;28;20201;-84
2024/01/09 04:44:03;;;;;;;3.13;2.87;;;;;;;;;;5141307;27;20453;-84
2024/01/09 04:46:33;;;;;;;3.27;2.97;;;;;;;;;;5106369;28;20449;-84
2024/01/09 04:49:03;;;;;;;6.20;3.00;;;;;;;;;;5106496;28;20219;-84
2024/01/09 04:51:31;;;;;;;3.70;3.40;;;;;;;;;;5106802;28;20446;-84
2024/01/09 04:54:00;;;;;;;2.80;2.60;;;;;;;;;;5107586;28;20490;-84
2024/01/09 04:56:29;;;;;;;5.20;3.60;;;;;;;;;;5107918;28;20477;-84
2024/01/09 04:58:57;;;;;;;3.40;3.20;;;;;;;;;;5106373;28;20491;-84
2024/01/09 05:01:26;;;;;;;5.10;3.50;;;;;;;;;;5106946;28;20449;-84
2024/01/09 05:03:56;;;;;;;3.03;2.80;;;;;;;;;;5103094;28;20477;-84
2024/01/09 05:06:25;;;;;;;3.50;3.20;;;;;;;;;;5093099;28;20482;-84
2024/01/09 05:08:53;;;;;;;3.33;3.03;;;;;;;;;;5092344;28;20443;-84
2024/01/09 05:11:22;;;;;;;8.93;3.23;;;;;;;;;;5093288;28;20451;-84
2024/01/09 05:13:51;;;;;;;3.30;2.60;;;;;;;;;;5093008;28;20477;-84
2024/01/09 05:16:19;;;;;;;3.97;3.67;;;;;;;;;;5092923;28;20439;-84
2024/01/09 05:18:48;;;;;;;4.63;3.83;;;;;;;;;;5093284;28;20438;-84
2024/01/09 05:21:18;;;;;;;2.80;2.00;;;;;;;;;;5093651;28;20442;-84
2024/01/09 05:23:46;;;;;;;3.30;3.00;;;;;;;;;;5094152;28;20471;-84
2024/01/09 05:26:15;;;;;;;4.37;3.73;;;;;;;;;;5093998;28;20193;-84
2024/01/09 05:28:46;;;;;;;5.63;3.53;;;;;;;;;;5093443;28;20431;-84
2024/01/09 05:31:15;;;;;;;3.10;2.77;;;;;;;;;;5092641;28;20450;-84
2024/01/09 05:33:43;;;;;;;3.93;3.17;;;;;;;;;;5094254;28;20471;-84
2024/01/09 05:36:12;;;;;;;4.13;3.73;;;;;;;;;;5092519;28;20438;-84
2024/01/09 05:38:42;;;;;;;3.30;3.00;;;;;;;;;;5091970;28;20482;-83
2024/01/09 05:41:10;;;;;;;6.27;3.60;;;;;;;;;;5092074;28;20443;-83
2024/01/09 05:43:39;;;;;;;3.00;2.63;;;;;;;;;;5092783;28;20435;-84
2024/01/09 05:46:08;;;;;;;2.90;2.57;;;;;;;;;;5093031;28;20223;-83
2024/01/09 05:48:36;;;;;;;2.50;2.40;;;;;;;;;;5091890;28;20478;-83
2024/01/09 05:51:05;;;;;;;2.67;2.47;;;;;;;;;;5093270;28;20439;-84
2024/01/09 05:53:34;;;;;;;2.60;2.10;;;;;;;;;;5092833;28;20482;-83
2024/01/09 05:56:04;;;;;;;2.87;2.60;;;;;;;;;;5093420;28;20197;-84
2024/01/09 05:58:33;;;;;;;2.43;2.17;;;;;;;;;;5093171;28;20439;-83
2024/01/09 06:01:02;;;;;;;4.87;3.63;;;;;;;;;;5091333;28;20525;-84
2024/01/09 06:03:31;;;;;;;3.13;2.93;;;;;;;;;;5092371;28;20451;-83
2024/01/09 06:06:00;;;;;;;4.60;3.33;;;;;;;;;;5091789;28;20443;-83
2024/01/09 06:08:28;;;;;;;3.33;3.03;;;;;;;;;;5091476;28;20548;-83
2024/01/09 06:10:57;;;;;;;3.97;3.60;;;;;;;;;;5091955;28;20434;-83
2024/01/09 06:13:27;;;;;;;3.03;2.80;;;;;;;;;;5092021;28;20478;-83
2024/01/09 06:15:55;;;;;;;3.10;2.80;;;;;;;;;;5091940;28;20220;-83
2024/01/09 06:18:24;;;;;;;3.30;3.00;;;;;;;;;;5092474;28;20439;-83
2024/01/09 06:20:53;;;;;;;6.53;3.87;;;;;;;;;;5091045;28;20451;-83
2024/01/09 06:23:21;;;;;;;3.60;3.30;;;;;;;;;;5091341;28;20450;-84
2024/01/09 06:25:50;;;;;;;3.23;2.93;;;;;;;;;;5091921;28;20451;-83
2024/01/09 06:28:18;;;;;;;4.90;3.83;;;;;;;;;;5091237;28;20455;-83
2024/01/09 06:30:48;;;;;;;2.80;2.57;;;;;;;;;;5091324;28;20434;-83
2024/01/09 06:33:17;;;;;;;2.57;2.37;;;;;;;;;;5091488;28;20545;-83
2024/01/09 06:35:46;;;;;;;3.27;2.53;;;;;;;;;;5091477;28;20495;-83
2024/01/09 06:38:15;;;;;;;3.33;2.73;;;;;;;;;;5091767;28;20442;-83
2024/01/09 06:40:44;;;;;;;3.90;3.40;;;;;;;;;;5092414;28;20441;-83
2024/01/09 06:43:12;;;;;;;5.47;3.20;;;;;;;;;;5092838;28;20438;-84
2024/01/09 06:45:41;;;;;;;4.43;4.03;;;;;;;;;;5092474;28;20435;-83
2024/01/09 06:48:11;;;;;;;2.93;2.30;;;;;;;;;;5091354;28;20489;-84
2024/01/09 06:50:40;;;;;;;3.40;3.00;;;;;;;;;;5091761;28;20434;-84
2024/01/09 06:53:08;;;;;;;3.80;3.43;;;;;;;;;;5090883;28;20454;-83
2024/01/09 06:55:37;;;;;;;3.20;3.00;;;;;;;;;;5090831;28;20474;-84
2024/01/09 06:58:06;;;;;;;2.77;2.53;;;;;;;;;;5092540;28;20439;-84
2024/01/09 07:00:34;;;;;;;3.07;2.73;;;;;;;;;;5092592;28;20435;-83
2024/01/09 07:03:03;;;;;;;3.73;3.43;;;;;;;;;;5090648;28;20447;-84
2024/01/09 07:05:33;;;;;;;6.03;3.60;;;;;;;;;;5091013;28;20426;-84
2024/01/09 07:08:03;;;;;;;5.20;4.50;;;;;;;;;;5091882;28;20488;-84
2024/01/09 07:10:31;;;;;;;4.83;3.10;;;;;;;;;;5091840;28;20466;-83
2024/01/09 07:13:00;;;;;;;3.57;2.13;;;;;;;;;;5091878;28;20529;-84
2024/01/09 07:15:28;;;;;;;3.77;3.47;;;;;;;;;;5090564;28;20479;-84
2024/01/09 07:17:57;;;;;;;3.63;2.97;;;;;;;;;;5090801;28;20427;-84
2024/01/09 07:20:26;;;;;;;5.77;3.10;;;;;;;;;;5091925;28;20538;-84
2024/01/09 07:22:55;;;;;;;3.87;2.90;;;;;;;;;;5090121;28;20442;-84
2024/01/09 07:25:36;;;;;;;3.20;2.97;;;;;;;;;;5090865;28;20437;-84
2024/01/09 07:28:08;;;;;;;4.50;3.57;;;;;;;;;;5091197;28;20435;-84
2024/01/09 07:30:36;;;;;;;3.30;3.10;;;;;;;;;;5091565;28;20538;-84
2024/01/09 07:33:05;;;;;;;2.30;2.10;;;;;;;;;;5090009;28;20495;-84
2024/01/09 07:35:37;;;;;;;3.20;2.90;;;;;;;;;;5090646;28;20493;-84
2024/01/09 07:38:08;;;;;;;3.43;2.80;;;;;;;;;;5090673;28;20529;-84
2024/01/09 07:40:36;;;;;;;4.97;2.80;;;;;;;;;;5091523;28;20481;-84
2024/01/09 07:43:05;;;;;;;3.77;3.00;;;;;;;;;;5089538;28;20442;-84
2024/01/09 07:45:33;;;;;;;1.93;1.80;;;;;;;;;;5090152;28;20489;-84
2024/01/09 07:48:03;;;;;;;2.97;2.57;;;;;;;;;;5093199;28;20491;-84
2024/01/09 07:50:32;;;;;;;2.40;2.20;;;;;;;;;;5090959;28;20227;-83
2024/01/09 07:53:01;;;;;;;3.10;2.80;;;;;;;;;;5090560;28;20474;-84
2024/01/09 07:55:34;;;;;;;3.67;3.30;;;;;;;;;;5090343;28;20474;-84
2024/01/09 08:01:54;;;;;;;2.97;2.70;;;;;;;;;;5057978;28;20465;-84
2024/01/09 08:04:23;;;;;;;2.97;2.23;;;;;;;;;;5090372;28;20435;-85
2024/01/09 08:06:54;;;;;;;3.77;2.87;;;;;;;;;;5090216;28;20434;-85
2024/01/09 08:09:25;;;;;;;2.60;2.40;;;;;;;;;;5090893;28;20450;-84
2024/01/09 08:11:56;;;;;;;3.23;2.93;;;;;;;;;;5089727;28;20445;-84
2024/01/09 08:14:24;;;;;;;5.03;2.93;;;;;;;;;;5090554;28;20508;-85
2024/01/09 08:16:53;;;;;;;2.37;2.13;;;;;;;;;;5089123;28;20431;-85
2024/01/09 08:19:21;;;;;;;2.73;2.53;;;;;;;;;;5090318;28;20457;-84
2024/01/09 08:21:50;;;;;;;2.70;2.30;;;;;;;;;;5089910;28;20496;-84
2024/01/09 08:24:19;;;;;;;3.43;3.13;;;;;;;;;;5090126;28;20545;-84
2024/01/09 08:26:48;;;;;;;3.40;3.10;;;;;;;;;;5090501;28;20435;-85
2024/01/09 08:29:19;;;;;;;3.97;3.50;;;;;;;;;;5089687;28;20468;-84
2024/01/09 08:31:48;;;;;;;3.00;2.77;;;;;;;;;;5090737;28;20450;-84
2024/01/09 08:34:17;;;;;;;3.00;2.80;;;;;;;;;;5090776;28;20430;-84
2024/01/09 08:36:46;;;;;;;3.10;2.73;;;;;;;;;;5090495;28;20427;-84
2024/01/09 08:39:15;;;;;;;4.13;2.57;;;;;;;;;;5090724;28;20439;-84
2024/01/09 08:41:43;;;;;;;2.47;2.27;;;;;;;;;;5094788;28;20433;-84
2024/01/09 08:44:14;;;;;;;2.77;2.50;;;;;;;;;;5095302;28;20457;-84
2024/01/09 08:46:51;;;;;;;3.13;2.40;;;;;;;;;;5094899;28;20430;-85
2024/01/09 08:49:20;;;;;;;2.73;2.50;;;;;;;;;;5095483;28;20464;-84
2024/01/09 08:51:57;;;;;;;3.07;2.77;;;;;;;;;;5093935;28;20438;-84
2024/01/09 08:54:26;;;;;;;3.70;3.40;;;;;;;;;;5093220;28;20580;-84
2024/01/09 08:56:55;;;;;;;2.50;2.30;;;;;;;;;;5093917;28;20430;-84
2024/01/09 09:02:28;;;;;;;3.27;2.97;;;;;;;;;;5089631;28;20512;-84
2024/01/09 09:04:57;;;;;;;3.17;2.87;;;;;;;;;;5094083;28;20448;-85
2024/01/09 09:07:27;;;;;;;2.53;2.30;;;;;;;;;;5094217;28;20530;-84
2024/01/09 09:09:56;;;;;;;4.90;3.60;;;;;;;;;;5094574;28;20482;-84
2024/01/09 09:12:25;;;;;;;3.20;2.90;;;;;;;;;;5094571;28;20427;-84
2024/01/09 09:14:53;;;;;;;2.73;2.63;;;;;;;;;;5094417;28;20483;-82
2024/01/09 09:17:22;;;;;;;4.33;3.13;;;;;;;;;;5093691;28;20197;-83
2024/01/09 09:19:54;;;;;;;3.63;3.10;;;;;;;;;;5093353;28;20447;-84
2024/01/09 09:22:25;;;;;;;3.07;2.80;;;;;;;;;;5094197;28;20272;-84
2024/01/09 09:24:54;;;;;;;3.60;2.80;;;;;;;;;;5092451;28;20442;-84
2024/01/09 09:27:23;;;;;;;2.77;2.57;;;;;;;;;;5092259;28;20236;-84
2024/01/09 09:29:52;;;;;;;4.47;2.60;;;;;;;;;;5093180;28;20442;-83
2024/01/09 09:32:21;;;;;;;2.77;2.57;;;;;;;;;;5094629;28;20283;-84
2024/01/09 09:34:49;;;;;;;6.07;2.50;;;;;;;;;;5092572;28;20443;-84
2024/01/09 09:37:21;;;;;;;2.67;2.17;;;;;;;;;;5092712;28;20283;-83
2024/01/09 09:39:50;;;;;;;2.67;2.47;;;;;;;;;;5092987;28;20443;-83
2024/01/09 09:42:22;;;;;;;3.80;2.90;;;;;;;;;;5093068;28;20200;-84
2024/01/09 09:44:52;;;;;;;4.40;2.97;;;;;;;;;;5092979;28;20199;-83
2024/01/09 09:47:21;;;;;;;2.53;2.30;;;;;;;;;;5091687;28;20435;-83
2024/01/09 09:49:51;;;;;;;3.03;2.83;;;;;;;;;;5093176;28;20238;-83
2024/01/09 09:52:21;;;;;;;3.67;3.37;;;;;;;;;;5092572;28;20451;-83
2024/01/09 09:54:50;;;;;;;3.20;2.97;;;;;;;;;;5091895;28;20239;-83
2024/01/09 09:57:20;;;;;;;2.67;2.47;;;;;;;;;;5092127;28;20313;-83
2024/01/09 09:59:48;;;;;;;2.70;2.30;;;;;;;;;;5092496;28;20435;-83
2024/01/09 10:02:21;;;;;;;3.67;3.03;;;;;;;;;;5093119;28;20201;-82
2024/01/09 10:05:03;;;;;;;3.60;2.97;;;;;;;;;;5094080;28;20461;-83
2024/01/09 10:07:34;;;;;;;3.60;3.10;;;;;;;;;;5092080;28;20533;-84
2024/01/09 10:10:03;;;;;;;3.43;3.23;;;;;;;;;;5092166;28;20196;-83
2024/01/09 10:12:32;;;;;;;3.00;2.70;;;;;;;;;;5093025;28;20199;-84
2024/01/09 10:15:05;;;;;;;1.90;1.80;;;;;;;;;;5094825;28;20197;-84
2024/01/09 10:17:33;;;;;;;2.50;2.30;;;;;;;;;;5091773;28;20277;-84
2024/01/09 10:20:04;;;;;;;2.60;2.40;;;;;;;;;;5091849;28;20201;-84
2024/01/09 10:22:35;;;;;;;2.90;2.60;;;;;;;;;;5094063;28;20447;-83
2024/01/09 10:25:10;;;;;;;3.07;2.63;;;;;;;;;;5092611;28;20476;-83
2024/01/09 10:30:36;;;;;;;3.40;2.87;;;;;;;;;;5090308;28;20211;-83
2024/01/09 10:33:10;;;;;;;2.80;2.60;;;;;;;;;;5091363;28;20196;-83
2024/01/09 10:35:39;;;;;;;3.23;2.93;;;;;;;;;;5091739;28;20197;-84
2024/01/09 10:38:09;;;;;;;2.93;2.63;;;;;;;;;;5091676;28;20204;-84
2024/01/09 10:40:38;;;;;;;3.30;2.63;;;;;;;;;;5090668;28;20229;-84
2024/01/09 10:43:06;;;;;;;3.17;2.87;;;;;;;;;;5091720;28;20454;-84
2024/01/09 10:45:38;;;;;;;2.90;2.47;;;;;;;;;;5092379;28;20446;-84
2024/01/09 10:48:07;;;;;;;2.93;2.00;;;;;;;;;;5090759;28;20530;-84
2024/01/09 10:50:37;;;;;;;3.37;3.00;;;;;;;;;;5090561;28;20470;-82
2024/01/09 10:53:06;;;;;;;3.40;2.23;;;;;;;;;;5091574;28;20445;-84
2024/01/09 10:55:36;;;;;;;3.33;2.30;;;;;;;;;;5093419;28;20313;-84
2024/01/09 10:58:12;;;;;;;2.73;2.23;;;;;;;;;;5092922;28;20269;-84
2024/01/09 11:00:41;;;;;;;3.43;3.13;;;;;;;;;;5091889;28;20446;-84
2024/01/09 11:03:11;;;;;;;2.87;2.57;;;;;;;;;;5091016;28;20200;-84
2024/01/09 11:05:41;;;;;;;2.77;2.20;;;;;;;;;;5092966;28;20220;-84
2024/01/09 11:08:21;;;;;;;2.80;2.50;;;;;;;;;;5092279;28;20219;-83
2024/01/09 11:10:51;;;;;;;2.67;1.90;;;;;;;;;;5091129;28;20554;-84
2024/01/09 11:13:22;;;;;;;2.77;2.57;;;;;;;;;;5091917;28;20211;-84
2024/01/09 11:15:54;;;;;;;2.90;2.37;;;;;;;;;;5090938;28;20267;-84
2024/01/09 11:18:24;;;;;;;4.10;2.43;;;;;;;;;;5091534;28;20443;-84
2024/01/09 11:21:01;;;;;;;3.10;2.40;;;;;;;;;;5091649;28;20224;-84
2024/01/09 11:23:46;;;;;;;3.40;2.97;;;;;;;;;;5091621;28;20188;-84
2024/01/09 11:26:16;;;;;;;2.73;2.53;;;;;;;;;;5091538;28;20238;-84
2024/01/09 11:28:45;;;;;;;2.10;2.00;;;;;;;;;;5090314;28;20446;-84
2024/01/09 11:31:16;;;;;;;4.10;2.93;;;;;;;;;;5090875;28;20209;-84
2024/01/09 11:33:46;;;;;;;2.00;1.80;;;;;;;;;;5093466;28;20279;-83
2024/01/09 11:36:19;;;;;;;2.83;2.63;;;;;;;;;;5091413;28;20311;-84
2024/01/09 11:39:00;;;;;;;2.60;2.40;;;;;;;;;;5091527;28;20463;-84
2024/01/09 11:41:35;;;;;;;3.13;2.70;;;;;;;;;;5089817;28;20196;-84
2024/01/09 11:44:04;;;;;;;3.73;3.20;;;;;;;;;;5092419;28;20236;-84
2024/01/09 11:46:34;;;;;;;3.27;2.30;;;;;;;;;;5091106;28;20203;-84
2024/01/09 11:49:03;;;;;;;2.33;2.13;;;;;;;;;;5090992;28;20501;-84
2024/01/09 11:51:33;;;;;;;2.97;2.67;;;;;;;;;;5090605;28;20218;-84
2024/01/09 11:54:02;;;;;;;4.10;3.40;;;;;;;;;;5091033;28;20229;-84
2024/01/09 11:56:31;;;;;;;2.13;1.90;;;;;;;;;;5091011;28;20232;-84
2024/01/09 11:59:02;;;;;;;3.87;3.47;;;;;;;;;;5092854;28;20197;-84
2024/01/09 12:01:30;;;;;;;2.47;2.27;;;;;;;;;;5091745;28;20197;-84
2024/01/09 12:03:59;;;;;;;2.83;2.60;;;;;;;;;;5091514;28;20265;-84
2024/01/09 12:06:30;;;;;;;2.33;2.17;;;;;;;;;;5090674;28;20193;-84
2024/01/09 12:09:04;;;;;;;2.53;2.33;;;;;;;;;;5092918;28;20215;-83
2024/01/09 12:11:34;;;;;;;2.20;2.00;;;;;;;;;;5092242;28;20193;-84
2024/01/09 12:14:08;;;;;;;2.83;2.47;;;;;;;;;;5092380;28;20459;-84
2024/01/09 12:16:36;;;;;;;4.73;2.77;;;;;;;;;;5094603;28;20227;-84
2024/01/09 12:19:05;;;;;;;2.93;2.63;;;;;;;;;;5094891;28;20231;-84
2024/01/09 12:21:35;;;;;;;1.77;1.67;;;;;;;;;;5094559;28;20326;-84
2024/01/09 12:24:05;;;;;;;3.53;2.90;;;;;;;;;;5094655;28;20199;-84
2024/01/09 12:26:53;;;;;;;3.47;3.10;;;;;;;;;;5095136;28;20193;-84
2024/01/09 12:29:33;;;;;;;2.43;2.13;;;;;;;;;;5095365;28;20201;-84
2024/01/09 12:32:03;;;;;;;2.17;2.00;;;;;;;;;;5094538;28;20189;-84
2024/01/09 12:34:32;;;;;;;2.60;2.40;;;;;;;;;;5095916;28;20447;-83
2024/01/09 12:37:05;;;;;;;2.67;2.47;;;;;;;;;;5095267;28;20510;-84
2024/01/09 12:39:37;;;;;;;1.93;1.80;;;;;;;;;;5095328;28;20220;-84
2024/01/09 12:42:06;;;;;;;2.50;2.30;;;;;;;;;;5096008;28;20200;-84
2024/01/09 12:44:42;;;;;;;2.47;2.27;;;;;;;;;;5095122;28;20189;-83
2024/01/09 12:47:11;;;;;;;4.13;3.03;;;;;;;;;;5094053;28;20222;-84
2024/01/09 12:49:45;;;;;;;2.90;2.40;;;;;;;;;;5095545;28;20220;-84
2024/01/09 12:52:31;;;;;;;3.10;2.83;;;;;;;;;;5092802;28;20293;-84
2024/01/09 12:55:00;;;;;;;3.33;2.70;;;;;;;;;;5092692;28;20319;-84
2024/01/09 12:57:35;;;;;;;2.40;2.20;;;;;;;;;;5093176;28;20227;-84
2024/01/09 13:00:10;;;;;;;3.37;3.07;;;;;;;;;;5096926;28;20319;-84
2024/01/09 13:02:42;;;;;;;3.27;2.97;;;;;;;;;;5094754;28;20357;-84
2024/01/09 13:05:17;;;;;;;2.40;2.20;;;;;;;;;;5094068;28;20193;-84
2024/01/09 13:07:46;;;;;;;2.50;2.27;;;;;;;;;;5095047;28;20203;-84
2024/01/09 13:10:23;;;;;;;2.67;2.47;;;;;;;;;;5096903;28;20249;-84
2024/01/09 13:12:53;;;;;;;2.30;2.10;;;;;;;;;;5094605;28;20276;-84
2024/01/09 13:15:23;;;;;;;2.70;2.40;;;;;;;;;;5095039;28;20379;-84
2024/01/09 13:17:51;;;;;;;4.17;2.60;;;;;;;;;;5095464;28;20295;-84
2024/01/09 13:20:22;;;;;;;3.50;2.40;;;;;;;;;;5093854;28;20221;-84
2024/01/09 13:22:50;;;;;;;2.40;2.20;;;;;;;;;;5093912;28;20289;-84
2024/01/09 13:25:22;;;;;;;2.93;2.60;;;;;;;;;;5094189;28;20299;-84
2024/01/09 13:27:51;;;;;;;2.47;2.27;;;;;;;;;;5095194;28;20193;-84
2024/01/09 13:30:20;;;;;;;2.70;2.50;;;;;;;;;;5094311;28;20197;-84
2024/01/09 13:33:14;;;;;;;2.77;2.03;;;;;;;;;;5096395;28;20254;-84
2024/01/09 13:35:43;;;;;;;2.63;2.43;;;;;;;;;;5093276;28;20247;-84
2024/01/09 13:38:12;;;;;;;2.37;2.10;;;;;;;;;;5094386;28;20221;-84
2024/01/09 13:40:44;;;;;;;2.53;2.33;;;;;;;;;;5093882;28;20246;-84
2024/01/09 13:43:13;;;;;;;3.33;2.40;;;;;;;;;;5095650;28;20220;-84
2024/01/09 13:45:42;;;;;;;2.90;2.43;;;;;;;;;;5094386;28;20197;-84
2024/01/09 13:48:13;;;;;;;3.23;2.93;;;;;;;;;;5095813;28;20184;-84
2024/01/09 13:50:47;;;;;;;3.27;2.73;;;;;;;;;;5093481;28;20199;-85
2024/01/09 13:53:22;;;;;;;3.17;2.57;;;;;;;;;;5093574;28;20200;-84
2024/01/09 13:56:02;;;;;;;2.53;2.33;;;;;;;;;;5092169;28;20322;-84
2024/01/09 13:58:30;;;;;;;2.70;2.50;;;;;;;;;;5094280;28;20213;-84
2024/01/09 14:00:59;;;;;;;2.77;2.50;;;;;;;;;;5095517;28;20193;-84
2024/01/09 14:03:29;;;;;;;2.73;2.17;;;;;;;;;;5094145;28;20189;-84
2024/01/09 14:05:58;;;;;;;2.60;2.40;;;;;;;;;;5092054;28;20201;-84
2024/01/09 14:08:27;;;;;;;4.10;2.83;;;;;;;;;;5091972;28;20192;-84
2024/01/09 14:10:56;;;;;;;2.67;2.47;;;;;;;;;;5094203;28;20197;-84
2024/01/09 14:13:25;;;;;;;2.73;2.40;;;;;;;;;;5092029;28;20261;-84
2024/01/09 14:15:56;;;;;;;3.40;3.10;;;;;;;;;;5092467;28;20197;-84
2024/01/09 14:18:25;;;;;;;3.83;2.53;;;;;;;;;;5093478;28;20315;-85
2024/01/09 14:20:56;;;;;;;2.27;2.07;;;;;;;;;;5092500;28;20205;-84
2024/01/09 14:23:24;;;;;;;2.30;2.10;;;;;;;;;;5093515;28;20193;-84
2024/01/09 14:25:52;;;;;;;2.43;2.23;;;;;;;;;;5092139;28;20239;-84
2024/01/09 14:28:22;;;;;;;2.80;2.53;;;;;;;;;;5091916;28;20212;-84
2024/01/09 14:30:51;;;;;;;3.53;2.67;;;;;;;;;;5093019;28;20189;-84
2024/01/09 14:33:20;;;;;;;2.53;2.33;;;;;;;;;;5092502;28;20193;-84
2024/01/09 14:35:49;;;;;;;2.47;2.27;;;;;;;;;;5091489;28;20207;-84
2024/01/09 14:38:19;;;;;;;2.50;2.30;;;;;;;;;;5092209;28;20213;-84
2024/01/09 14:40:47;;;;;;;3.30;2.93;;;;;;;;;;5092952;28;20260;-84
2024/01/09 14:43:18;;;;;;;3.30;2.90;;;;;;;;;;5092361;28;20353;-84
2024/01/09 14:45:47;;;;;;;3.40;2.53;;;;;;;;;;5092933;28;20238;-84
2024/01/09 14:48:16;;;;;;;2.50;2.30;;;;;;;;;;5091041;28;20193;-84
2024/01/09 14:50:45;;;;;;;2.83;2.50;;;;;;;;;;5091423;28;20250;-84
2024/01/09 14:53:13;;;;;;;2.63;2.43;;;;;;;;;;5091760;28;20232;-84
2024/01/09 14:55:43;;;;;;;3.17;2.80;;;;;;;;;;5093028;28;20228;-84
2024/01/09 14:58:12;;;;;;;2.40;2.20;;;;;;;;;;5091442;28;20209;-84
2024/01/09 15:00:41;;;;;;;2.87;2.43;;;;;;;;;;5090533;28;20223;-84
2024/01/09 15:03:09;;;;;;;3.00;2.73;;;;;;;;;;5090962;28;20185;-84
2024/01/09 15:05:38;;;;;;;4.20;3.00;;;;;;;;;;5091830;28;20207;-85
2024/01/09 15:08:14;;;;;;;7.73;3.17;;;;;;;;;;5091377;28;20205;-85